Malaysia Virtual Airlines Airport Information Service

Malé International Airport

ICAO: VRMM Country: Maldives
Latitude: 4.19183 Longitude: 73.5291
Latest Arrival : AK72 (WMKK-VRMM) Latest Departure : AK73 (VRMM-WMKK)


WX CaptureLIVE
Data provided by noaa.gov | Fetched at 21:07:44

METAR : VRMM 122000Z 33007KT 9999 SCT016 OVC100 26/25 Q1008 TEMPO 5000 SHRA

TAF : VRMM 121700Z 1218/1324 25020KT 9000 SCT016TCU BKN110 TEMPO 1218/1224 28023G40KT 3000 SHRA SCT016CB


Runway Data for VRMM
Data provided by openaviationdata.com

Runway ID Mag Var Hdg Length Elevation Surface ILS Freq ILS Id ILS Slope
18 -3 182° 10547 ft 0 ft Bituminous -- -- --
36 -3 10547 ft 0 ft Bituminous 108.7 IML 3

Malé International Airport, Maldives
Use only for reference purposes



Not for navigational purposes.